Latest Weather Observations for Tunnack

IDT60801

Issued at 11:01 am EST Tuesday 26 May 2020 (issued every 10 minutes, with the page automatically refreshed every 10 minutes)

About weather observations | Map of weather stations | Latest weather observations for TAS | Other Formats
Station Details ID: 094195 Name: TUNNACK FIRE STATION Lat: -42.45 Lon: 147.46 Height: 461.5 m
Data from the previous 72 hours. | See also: Recent months at Tunnack
Date/Time
EST
Temp
°C
App
Temp
°C
Dew
Point
°C
Rel
Hum
%
Delta-T
°C
Wind Press
QNH
hPa
Press
MSL
hPa
Rain since
9am
mm
Dir  Spd
km/h
Gust
km/h
Spd
kts
Gust
kts
26/11:00am 6.0 1.4 3.7 85 1.0 N 17 20 9 11 1027.0 1027.7 0.0
26/10:30am 5.6 0.4 3.8 88 0.8 N 20 26 11 14 1027.1 1027.8 0.0
26/10:00am 5.2 0.7 4.2 93 0.4 N 17 24 9 13 1027.3 1028.0 0.0
26/09:30am 3.9 -1.4 3.2 95 0.3 N 20 28 11 15 1027.3 1028.0 0.0
26/09:00am 3.9 -0.7 3.5 97 0.2 N 17 20 9 11 1027.3 1028.0 0.2
26/08:30am 3.7 -0.6 3.4 98 0.1 N 15 19 8 10 1027.4 1028.1 0.2
26/08:00am 3.5 -0.8 3.4 99 0.0 N 15 20 8 11 1027.4 1028.1 0.2
26/07:30am 3.2 -0.4 3.1 99 0.0 N 11 17 6 9 1027.5 1028.2 0.2
26/07:00am 3.0 -1.0 2.9 99 0.0 N 13 17 7 9 1027.5 1028.2 0.2
26/06:30am 2.6 -0.7 2.3 98 0.1 NNE 9 13 5 7 1027.5 1028.2 0.2
26/06:00am 3.2 -0.8 3.1 99 0.0 N 13 20 7 11 1027.4 1028.1 0.2
26/05:30am 3.3 -0.6 3.2 99 0.0 N 13 17 7 9 1027.4 1028.1 0.2
26/05:00am 3.1 -0.9 3.1 100 0.0 NNE 13 19 7 10 1027.4 1028.1 0.2
26/04:30am 2.9 -1.1 2.9 100 0.0 NNE 13 15 7 8 1027.3 1028.0 0.2
26/04:00am 2.6 -0.7 2.6 100 0.0 NE 9 13 5 7 1027.2 1027.9 0.2
26/03:30am 2.7 -0.6 2.7 100 0.0 NNE 9 13 5 7 1027.3 1028.0 0.2
26/03:00am 2.6 -0.7 2.6 100 0.0 N 9 13 5 7 1027.3 1028.0 0.2
26/02:30am 2.2 -1.5 2.2 100 0.0 N 11 13 6 7 1027.2 1027.9 0.2
26/02:00am 2.5 -1.2 2.5 100 0.0 NNE 11 15 6 8 1027.4 1028.1 0.2
26/01:30am 3.0 -0.6 3.0 100 0.0 NNE 11 20 6 11 1027.7 1028.4 0.2
26/01:00am 3.0 -0.6 3.0 100 0.0 NNE 11 17 6 9 1027.8 1028.5 0.2
26/12:30am 2.9 -0.3 2.9 100 0.0 NNE 9 15 5 8 1028.1 1028.8 0.2
26/12:00am 2.4 -1.3 2.4 100 0.0 NNE 11 17 6 9 1027.8 1028.5 0.0
 
Date/Time
EST
Temp
°C
App
Temp
°C
Dew
Point
°C
Rel
Hum
%
Delta-T
°C
Wind Press
QNH
hPa
Press
MSL
hPa
Rain since
9am
mm
Dir  Spd
km/h
Gust
km/h
Spd
kts
Gust
kts
25/11:30pm 2.3 -2.2 2.3 100 0.0 N 15 20 8 11 1027.6 1028.3 0.0
25/11:00pm 1.3 -1.8 1.3 100 0.0 N 7 9 4 5 1027.7 1028.4 0.0
25/10:30pm 0.8 -2.8 0.7 99 0.0 NNE 9 11 5 6 1027.7 1028.4 0.0
25/10:00pm 1.2 -2.3 1.1 99 0.0 NNE 9 11 5 6 1027.8 1028.5 0.0
25/09:30pm 1.4 -1.7 1.3 99 0.0 NE 7 11 4 6 1027.9 1028.6 0.0
25/09:00pm 1.0 -2.6 0.7 98 0.1 NNE 9 13 5 7 1028.0 1028.7 0.0
25/08:30pm 0.5 -3.6 0.1 97 0.1 NNE 11 13 6 7 1028.1 1028.8 0.0
25/08:00pm 0.4 -2.8 -0.2 96 0.2 ESE 6 7 3 4 1028.2 1028.9 0.0
25/07:30pm 1.9 -1.0 1.5 97 0.2 ESE 6 7 3 4 1028.0 1028.7 0.0
25/07:00pm 1.7 -1.8 1.1 96 0.2 NE 9 13 5 7 1027.5 1028.2 0.0
25/06:30pm 1.7 -1.5 0.8 94 0.3 NNE 7 9 4 5 1027.2 1027.9 0.0
25/06:00pm 1.9 -1.7 0.7 92 0.5 NNE 9 11 5 6 1026.9 1027.6 0.0
25/05:30pm 3.5 1.8 1.9 89 0.6 CALM 0 0 0 0 1027.0 1027.7 0.0
25/05:00pm 4.7 1.9 2.1 83 1.1 NE 6 9 3 5 1026.7 1027.4 0.0
25/04:30pm 5.9 3.6 2.7 80 1.4 NE 4 9 2 5 1026.8 1027.5 0.0
25/04:00pm 6.8 3.6 3.1 77 1.6 NNE 9 11 5 6 1026.6 1027.2 0.0
25/03:30pm 7.3 3.8 3.4 76 1.7 NNE 11 13 6 7 1026.3 1026.9 0.0
25/03:00pm 7.6 4.1 3.5 75 1.8 NNE 11 15 6 8 1026.2 1026.8 0.0
25/02:30pm 7.7 5.8 2.6 70 2.2 NNE 2 7 1 4 1026.2 1026.8 0.0
25/02:00pm 7.4 4.1 2.7 72 2.0 NNE 9 13 5 7 1025.8 1026.5 0.0
25/01:30pm 7.4 3.5 3.5 76 1.7 NNE 13 17 7 9 1025.6 1026.3 0.0
25/01:00pm 7.0 4.2 2.9 75 1.8 NW 7 13 4 7 1026.2 1026.8 0.0
25/12:30pm 7.0 3.1 3.6 79 1.5 N 13 17 7 9 1026.6 1027.2 0.0
25/12:00pm 5.7 2.9 3.2 84 1.1 NE 7 13 4 7 1026.8 1027.5 0.0
25/11:30am 5.1 2.8 3.0 86 0.9 NE 4 7 2 4 1027.6 1028.3 0.0
25/11:00am 4.7 1.9 2.9 88 0.8 SSE 7 13 4 7 1028.2 1028.9 0.0
25/10:30am 4.4 1.2 2.9 90 0.6 S 9 13 5 7 1028.2 1028.9 0.0
25/10:00am 4.4 0.8 3.2 92 0.5 SE 11 15 6 8 1028.3 1029.0 0.0
25/09:30am 4.2 0.6 3.2 93 0.4 SSW 11 15 6 8 1028.6 1029.3 0.0
25/09:00am 4.1 1.3 3.4 95 0.3 S 7 13 4 7 1028.3 1029.0 1.2
25/08:30am 4.0 1.2 3.3 95 0.3 S 7 13 4 7 1027.8 1028.5 1.2
25/08:00am 3.9 1.1 3.2 95 0.3 S 7 9 4 5 1027.4 1028.1 1.2
25/07:30am 3.9 1.7 3.3 96 0.3 SE 4 11 2 6 1027.0 1027.7 1.2
25/07:00am 3.9 1.4 3.5 97 0.2 SE 6 9 3 5 1026.9 1027.6 1.2
25/06:30am 3.9 2.2 3.8 99 0.0 SSE 2 9 1 5 1026.4 1027.0 1.2
25/06:00am 3.9 1.4 3.8 99 0.0 SW 6 7 3 4 1026.2 1026.8 1.2
25/05:30am 3.8 1.7 3.8 100 0.0 WSW 4 9 2 5 1026.2 1026.8 1.2
25/05:00am 3.8 1.3 3.8 100 0.0 SW 6 7 3 4 1025.9 1026.6 1.2
25/04:30am 3.8 1.3 3.8 100 0.0 S 6 9 3 5 1025.8 1026.5 1.2
25/04:00am 3.8 0.4 3.8 100 0.0 SSW 11 17 6 9 1025.9 1026.6 1.2
25/03:30am 3.9 0.9 3.9 100 0.0 SSW 9 13 5 7 1026.0 1026.7 1.2
25/03:00am 4.0 1.3 3.9 99 0.0 SW 7 9 4 5 1026.2 1026.8 1.2
25/02:30am 4.1 1.0 3.8 98 0.1 SW 9 13 5 7 1026.2 1026.8 1.0
25/02:00am 4.1 0.7 3.8 98 0.1 SW 11 19 6 10 1026.0 1026.7 1.0
25/01:30am 4.2 1.1 3.8 97 0.2 SSW 9 13 5 7 1025.9 1026.6 1.0
25/01:00am 4.2 1.1 3.6 96 0.3 SSW 9 11 5 6 1026.2 1026.8 1.0
25/12:30am 4.4 0.9 3.7 95 0.3 SSW 11 20 6 11 1026.0 1026.7 1.0
25/12:00am 4.3 0.9 3.9 97 0.2 SSW 11 15 6 8 1026.2 1026.8 1.0
 
Date/Time
EST
Temp
°C
App
Temp
°C
Dew
Point
°C
Rel
Hum
%
Delta-T
°C
Wind Press
QNH
hPa
Press
MSL
hPa
Rain since
9am
mm
Dir  Spd
km/h
Gust
km/h
Spd
kts
Gust
kts
24/11:30pm 4.3 1.3 3.9 97 0.2 SSW 9 13 5 7 1026.0 1026.7 1.0
24/11:00pm 4.4 1.3 3.5 94 0.4 SSW 9 13 5 7 1026.0 1026.7 1.0
24/10:30pm 4.6 1.5 3.6 93 0.4 S 9 15 5 8 1026.2 1026.8 1.0
24/10:00pm 4.6 1.8 3.3 91 0.5 S 7 13 4 7 1026.0 1026.7 1.0
24/09:30pm 4.6 1.8 3.3 91 0.6 S 7 11 4 6 1025.6 1026.3 1.0
24/09:00pm 4.8 1.2 3.1 89 0.7 S 11 15 6 8 1025.5 1026.2 1.0
24/08:30pm 4.8 1.2 3.0 88 0.8 SSW 11 17 6 9 1025.5 1026.2 1.0
24/08:00pm 4.7 1.6 3.4 91 0.5 S 9 13 5 7 1025.4 1026.1 1.0
24/07:30pm 4.8 1.7 3.8 93 0.4 SSW 9 15 5 8 1025.1 1025.8 1.0
24/07:00pm 4.8 1.0 3.8 93 0.4 SSW 13 19 7 10 1024.8 1025.5 1.0
24/06:30pm 4.9 1.2 4.2 95 0.3 SSW 13 20 7 11 1024.7 1025.3 1.0
24/06:00pm 5.0 1.6 4.1 94 0.4 SSW 11 17 6 9 1024.4 1025.0 1.0
24/05:30pm 5.2 1.5 4.2 93 0.4 SSW 13 19 7 10 1024.3 1024.9 1.0
24/05:00pm 5.4 1.3 4.5 94 0.4 S 15 22 8 12 1024.1 1024.7 1.0
24/04:30pm 5.7 2.1 5.0 95 0.3 S 13 20 7 11 1024.0 1024.6 1.0
24/04:00pm 5.8 1.9 5.2 96 0.3 S 15 26 8 14 1023.9 1024.5 1.0
24/03:30pm 5.9 2.4 5.3 96 0.3 S 13 24 7 13 1023.7 1024.4 1.0
24/03:00pm 6.0 2.2 5.6 97 0.2 S 15 30 8 16 1023.6 1024.3 1.0
24/02:30pm 6.2 2.4 5.9 98 0.1 S 15 28 8 15 1023.5 1024.2 1.0
24/02:00pm 6.3 2.2 6.2 99 0.0 SSW 17 28 9 15 1023.4 1024.1 0.8
24/01:30pm 6.5 2.1 6.5 100 0.0 SSE 19 28 10 15 1023.2 1023.9 0.8
24/01:00pm 6.8 2.4 6.7 99 0.0 S 19 28 10 15 1023.0 1023.7 0.8
24/12:30pm 6.6 1.6 6.5 99 0.0 S 22 32 12 17 1023.0 1023.7 0.8
24/12:00pm 6.8 3.2 6.8 100 0.0 S 15 24 8 13 1023.2 1023.9 0.8
24/11:30am 6.6 3.7 6.6 100 0.0 S 11 19 6 10 1023.4 1024.1 0.8
24/11:00am 6.6 3.3 6.6 100 0.0 S 13 24 7 13 1023.2 1023.9 0.8
24/10:30am 6.5 2.8 6.5 100 0.0 SSW 15 26 8 14 1022.9 1023.5 0.6
24/10:00am 6.0 1.5 6.0 100 0.0 SSW 19 26 10 14 1022.6 1023.2 0.4
24/09:30am 5.9 2.5 5.9 100 0.0 SSW 13 19 7 10 1022.4 1023.0 0.2
24/09:00am 5.8 2.0 5.8 100 0.0 SSW 15 26 8 14 1022.2 1022.8 0.2
24/08:30am 5.7 1.5 5.7 100 0.0 SSW 17 32 9 17 1022.0 1022.6 0.2
24/08:00am 5.5 -0.1 5.5 100 0.0 SSW 24 35 13 19 1021.6 1022.2 0.2
24/07:30am 5.5 0.9 5.5 100 0.0 SSW 19 30 10 16 1021.1 1021.8 0.0
24/07:00am 5.4 1.1 5.4 100 0.0 SSW 17 24 9 13 1020.9 1021.5 0.0
24/06:30am 5.3 1.0 5.3 100 0.0 SSW 17 26 9 14 1020.6 1021.2 0.0
24/06:00am 5.3 0.6 5.0 98 0.1 SSW 19 28 10 15 1020.3 1020.9 0.0
24/05:30am 5.3 1.2 4.6 95 0.3 SSW 15 24 8 13 1020.0 1020.6 0.0
24/05:00am 5.4 0.8 3.9 90 0.6 SSW 17 24 9 13 1019.8 1020.4 0.0
24/04:30am 5.5 1.5 2.8 83 1.1 SW 13 19 7 10 1019.5 1020.1 0.0
24/04:00am 5.5 1.9 2.7 82 1.2 SW 11 17 6 9 1019.3 1019.8 0.0
24/03:30am 5.5 1.8 2.5 81 1.3 SW 11 17 6 9 1019.3 1019.8 0.0
24/03:00am 5.7 1.7 2.7 81 1.3 SW 13 22 7 12 1019.4 1020.0 0.0
24/02:30am 5.6 1.6 2.9 83 1.1 SW 13 24 7 13 1019.6 1020.2 0.0
24/02:00am 5.8 1.8 2.8 81 1.3 SW 13 20 7 11 1019.6 1020.2 0.0
24/01:30am 5.9 1.6 3.1 82 1.2 SW 15 20 8 11 1019.3 1019.8 0.0
24/01:00am 5.7 1.4 3.4 85 1.0 WSW 15 22 8 12 1019.1 1019.7 0.0
24/12:30am 5.8 1.4 2.8 81 1.3 SW 15 20 8 11 1019.0 1019.6 0.0
24/12:00am 5.8 1.9 3.5 85 1.0 SW 13 17 7 9 1018.9 1019.5 0.0
 
Date/Time
EST
Temp
°C
App
Temp
°C
Dew
Point
°C
Rel
Hum
%
Delta-T
°C
Wind Press
QNH
hPa
Press
MSL
hPa
Rain since
9am
mm
Dir  Spd
km/h
Gust
km/h
Spd
kts
Gust
kts
23/11:30pm 6.0 2.2 3.8 86 1.0 SSW 13 22 7 12 1018.8 1019.4 0.0
23/11:00pm 6.1 1.6 4.4 89 0.7 SSW 17 24 9 13 1018.5 1019.1 0.0
23/10:30pm 5.9 2.2 4.4 90 0.7 SSW 13 19 7 10 1018.3 1018.9 0.0
23/10:00pm 6.0 1.4 3.8 86 1.0 SSW 17 20 9 11 1018.3 1018.9 0.0
23/09:30pm 5.9 1.8 4.2 89 0.7 SSW 15 24 8 13 1018.3 1018.9 0.0
23/09:00pm 6.3 2.0 5.1 92 0.5 SSW 17 26 9 14 1018.2 1018.8 0.0
23/08:30pm 6.0 1.3 5.0 93 0.4 SSW 19 28 10 15 1017.9 1018.5 0.0
23/08:00pm 6.7 2.2 6.0 95 0.3 SSW 19 26 10 14 1017.7 1018.3 0.0
23/07:30pm 6.8 2.7 6.2 96 0.3 S 17 32 9 17 1017.5 1018.1 0.0
23/07:00pm 7.0 2.4 6.6 97 0.2 S 20 30 11 16 1017.2 1017.7 0.0
23/06:30pm 7.1 3.1 6.8 98 0.1 S 17 24 9 13 1017.0 1017.5 0.0
23/06:00pm 7.2 3.3 6.9 98 0.1 S 17 26 9 14 1016.6 1017.2 0.0
23/05:30pm 7.5 3.9 6.9 96 0.3 S 15 24 8 13 1016.2 1016.8 0.0
23/05:00pm 8.0 4.6 6.1 88 0.9 SSW 13 20 7 11 1015.9 1016.5 0.0
23/04:30pm 9.2 5.8 5.8 79 1.6 SW 13 20 7 11 1015.6 1016.1 0.0
23/04:00pm 9.5 5.6 5.5 76 1.9 SW 15 20 8 11 1015.5 1016.0 0.0
23/03:30pm 10.1 5.9 5.7 74 2.1 SW 17 24 9 13 1015.3 1015.8 0.0
23/03:00pm 10.1 6.4 6.1 76 1.9 SW 15 20 8 11 1015.3 1015.8 0.0
23/02:30pm 10.6 6.9 6.2 74 2.1 SW 15 20 8 11 1015.3 1015.8 0.0
23/02:00pm 10.2 6.4 6.0 75 2.0 SSW 15 20 8 11 1015.4 1015.9 0.0
23/01:30pm 10.2 6.5 6.2 76 1.9 SW 15 24 8 13 1015.6 1016.1 0.0
23/01:00pm 10.0 5.9 6.2 77 1.8 SSW 17 26 9 14 1015.9 1016.5 0.0
23/12:30pm 9.9 6.5 6.1 77 1.8 SW 13 20 7 11 1016.1 1016.7 0.0
23/12:00pm 9.5 6.2 6.2 80 1.6 SW 13 20 7 11 1016.4 1017.0 0.0
23/11:30am 10.2 7.0 6.9 80 1.6 WSW 13 20 7 11 1016.7 1017.3 0.0

Other formats

Comma delimited format used in spreadsheet applications
http://www.bom.gov.au/fwo/IDT60801/IDT60801.94960.axf

JavaScript Object Notation format (JSON) in row-major order
http://www.bom.gov.au/fwo/IDT60801/IDT60801.94960.json

Data quality

Most of these data are generated automatically and are frequently updated. Quality checks on data are not normally performed. It is possible for incorrect values to appear. Refer to information at About Latest Weather Observations and please check the disclaimer before using these data.